Time;durP1;ratioP1;P1;durP2;ratioP2;P2;SDS_P1;SDS_P2;PMS_P1;PMS_P2;Temp;Humidity;BMP_temperature;BMP_pressure;BME280_temperature;BME280_humidity;BME280_pressure;Samples;Min_cycle;Max_cycle;Signal;HPM_P1;HPM_P2
2022/05/14 00:01:30;;;;;;;0.05;0.05;;;;;;;15.61;53.17;101324.34;7350409;19;20006;-59
2022/05/14 00:03:55;;;;;;;0.00;0.00;;;;;;;15.57;53.64;101324.47;7358454;19;20011;-60
2022/05/14 00:06:23;;;;;;;0.00;0.00;;;;;;;15.56;53.81;101319.22;7351075;19;20013;-60
2022/05/14 00:08:48;;;;;;;0.00;0.00;;;;;;;15.52;53.51;101322.88;7352763;19;20035;-59
2022/05/14 00:13:59;;;;;;;0.00;0.00;;;;;;;15.45;54.51;101318.72;7352622;19;20527;-59
2022/05/14 00:16:25;;;;;;;0.00;0.00;;;;;;;15.29;54.02;101295.53;7355874;19;20030;-60
2022/05/14 00:18:52;;;;;;;0.00;0.00;;;;;;;15.39;53.88;101327.69;7349769;19;20010;-59
2022/05/14 00:21:19;;;;;;;0.00;0.00;;;;;;;15.35;54.87;101318.16;7355864;19;20022;-60
2022/05/14 00:23:45;;;;;;;0.00;0.00;;;;;;;15.30;54.67;101320.09;7366590;19;20579;-59
2022/05/14 00:26:11;;;;;;;0.08;0.08;;;;;;;15.27;55.04;101328.94;7372758;19;20040;-58
2022/05/14 00:28:36;;;;;;;0.00;0.00;;;;;;;15.21;55.14;101318.63;7370682;19;20019;-61
2022/05/14 00:31:01;;;;;;;0.00;0.00;;;;;;;15.20;55.23;101337.06;7365535;19;20399;-60
2022/05/14 00:33:27;;;;;;;0.00;0.00;;;;;;;15.15;54.95;101324.06;7366740;19;20018;-59
2022/05/14 00:35:52;;;;;;;0.00;0.00;;;;;;;15.14;54.73;101327.59;7372406;19;20055;-58
2022/05/14 00:38:18;;;;;;;0.00;0.00;;;;;;;15.11;55.25;101332.97;7366506;19;20014;-59
2022/05/14 00:40:47;;;;;;;0.00;0.00;;;;;;;15.07;55.82;101331.34;7368639;19;20017;-60
2022/05/14 00:43:14;;;;;;;0.00;0.00;;;;;;;15.02;55.68;101328.88;7375023;19;20796;-59
2022/05/14 00:45:45;;;;;;;0.00;0.00;;;;;;;14.94;56.10;101319.47;7374498;19;20011;-60
2022/05/14 00:48:12;;;;;;;0.00;0.00;;;;;;;15.00;55.92;101348.22;7366183;19;20006;-59
2022/05/14 00:50:39;;;;;;;0.00;0.00;;;;;;;14.99;55.73;101346.50;7363104;19;20146;-60
2022/05/14 00:53:13;;;;;;;;;;;;;;;14.98;51.68;101337.75;7367554;19;20023;-59
2022/05/14 00:55:40;;;;;;;0.00;0.00;;;;;;;14.95;55.89;101337.88;7366136;19;19913;-60
2022/05/14 00:58:08;;;;;;;0.00;0.00;;;;;;;14.95;55.73;101331.72;7365425;19;20709;-59
2022/05/14 01:00:34;;;;;;;0.00;0.00;;;;;;;14.89;55.98;101331.91;7361811;19;20248;-60
2022/05/14 01:03:00;;;;;;;0.00;0.00;;;;;;;14.86;56.63;101338.13;7363993;19;20014;-60
2022/05/14 01:05:26;;;;;;;0.00;0.00;;;;;;;14.73;56.96;101321.84;7365811;19;20022;-59
2022/05/14 01:07:54;;;;;;;0.00;0.00;;;;;;;14.80;56.63;101348.84;7366244;19;20014;-58
2022/05/14 01:10:22;;;;;;;0.03;0.03;;;;;;;14.69;56.75;101340.38;7370112;19;20090;-59
2022/05/14 01:12:51;;;;;;;0.00;0.00;;;;;;;14.76;56.88;101348.06;7373354;19;20750;-59
2022/05/14 01:15:23;;;;;;;0.00;0.00;;;;;;;14.67;56.34;101336.97;7367063;19;20026;-58
2022/05/14 01:17:48;;;;;;;0.03;0.03;;;;;;;14.72;57.43;101350.81;7362416;19;20034;-59
2022/05/14 01:20:16;;;;;;;0.00;0.00;;;;;;;14.71;56.41;101349.97;7362861;19;20093;-60
2022/05/14 01:23:00;;;;;;;0.00;0.00;;;;;;;14.69;55.99;101351.75;7364381;19;20006;-59
2022/05/14 01:28:29;;;;;;;0.00;0.00;;;;;;;14.63;57.25;101345.84;7261483;19;2005056;-59
2022/05/14 01:30:59;;;;;;;0.00;0.00;;;;;;;14.62;57.21;101347.59;7364213;19;20013;-59
2022/05/14 01:33:26;;;;;;;0.00;0.00;;;;;;;14.58;57.67;101348.59;7363557;19;20010;-60
2022/05/14 01:35:51;;;;;;;0.00;0.00;;;;;;;14.55;57.79;101346.06;7368364;19;20010;-58
2022/05/14 01:38:19;;;;;;;0.00;0.00;;;;;;;14.54;57.58;101345.19;7367144;19;20459;-58
2022/05/14 01:40:44;;;;;;;0.00;0.00;;;;;;;14.52;57.37;101348.78;7370470;19;20006;-60
2022/05/14 01:43:10;;;;;;;0.00;0.00;;;;;;;14.49;57.54;101354.09;7363778;19;20026;-60
2022/05/14 01:45:36;;;;;;;0.00;0.00;;;;;;;14.46;57.28;101354.19;7363540;19;20415;-58
2022/05/14 01:48:01;;;;;;;0.00;0.00;;;;;;;14.41;57.93;101359.56;7363947;19;20010;-59
2022/05/14 01:50:27;;;;;;;0.00;0.00;;;;;;;14.37;58.22;101357.06;7364658;19;20096;-60
2022/05/14 01:52:52;;;;;;;0.00;0.00;;;;;;;14.24;57.45;101338.13;7365217;19;20010;-59
2022/05/14 01:55:18;;;;;;;0.08;0.08;;;;;;;14.29;57.73;101346.75;7363830;19;20078;-59
2022/05/14 01:57:43;;;;;;;0.00;0.00;;;;;;;14.20;57.72;101339.16;7361478;19;20015;-60
2022/05/14 02:00:11;;;;;;;0.00;0.00;;;;;;;14.20;57.67;101347.88;7357448;19;20022;-59
2022/05/14 02:02:37;;;;;;;0.10;0.10;;;;;;;14.16;58.17;101350.63;7366536;19;20031;-59
2022/05/14 02:05:03;;;;;;;0.00;0.00;;;;;;;14.11;58.77;101347.28;7369156;19;20018;-59
2022/05/14 02:07:28;;;;;;;0.00;0.00;;;;;;;14.05;58.62;101348.31;7360863;19;20034;-58
2022/05/14 02:09:54;;;;;;;0.00;0.00;;;;;;;14.01;59.19;101347.50;7361519;19;20022;-59
2022/05/14 02:12:19;;;;;;;0.00;0.00;;;;;;;13.94;58.63;101355.59;7362472;19;20010;-59
2022/05/14 02:14:45;;;;;;;0.00;0.00;;;;;;;13.82;58.79;101327.88;7367879;19;20018;-60
2022/05/14 02:17:11;;;;;;;0.10;0.10;;;;;;;13.79;59.48;101340.22;7361526;19;20089;-59
2022/05/14 02:19:37;;;;;;;0.00;0.00;;;;;;;13.87;59.63;101356.66;7360518;19;20520;-59
2022/05/14 02:22:05;;;;;;;0.00;0.00;;;;;;;13.74;59.47;101333.34;7359090;19;20250;-59
2022/05/14 02:24:33;;;;;;;0.00;0.00;;;;;;;13.83;58.90;101353.22;7360127;19;20002;-60
2022/05/14 02:26:59;;;;;;;0.00;0.00;;;;;;;13.77;59.95;101343.75;7359526;19;20007;-58
2022/05/14 02:29:24;;;;;;;0.08;0.08;;;;;;;13.76;59.34;101347.28;7359363;19;20002;-59
2022/05/14 02:31:50;;;;;;;0.00;0.00;;;;;;;13.71;59.14;101341.28;7358705;19;20010;-60
2022/05/14 02:34:16;;;;;;;0.00;0.00;;;;;;;13.71;59.74;101343.06;7364807;19;20017;-59
2022/05/14 02:36:41;;;;;;;0.00;0.00;;;;;;;13.69;59.81;101347.50;7360716;19;20023;-60
2022/05/14 02:39:06;;;;;;;0.00;0.00;;;;;;;13.65;59.73;101344.06;7356883;19;20014;-64
2022/05/14 02:41:32;;;;;;;0.00;0.00;;;;;;;13.62;60.25;101338.91;7365476;19;20129;-58
2022/05/14 02:43:57;;;;;;;0.00;0.00;;;;;;;13.61;59.84;101334.56;7357839;19;20131;-60
2022/05/14 02:46:22;;;;;;;0.00;0.00;;;;;;;13.57;59.64;101335.53;7355737;19;20655;-58
2022/05/14 02:48:48;;;;;;;0.00;0.00;;;;;;;13.54;60.41;101335.63;7359703;19;20018;-59
2022/05/14 02:51:13;;;;;;;0.03;0.03;;;;;;;13.52;60.44;101337.41;7357304;19;20575;-60
2022/05/14 02:53:38;;;;;;;0.00;0.00;;;;;;;13.48;60.38;101330.50;7366033;19;20015;-58
2022/05/14 02:56:04;;;;;;;0.00;0.00;;;;;;;13.45;60.08;101335.84;7360680;19;20743;-59
2022/05/14 03:01:34;;;;;;;0.00;0.00;;;;;;;13.32;60.69;101324.75;7259023;19;2004509;-60
2022/05/14 03:04:00;;;;;;;0.00;0.00;;;;;;;13.33;61.16;101330.88;7359839;19;20014;-58
2022/05/14 03:06:27;;;;;;;0.00;0.00;;;;;;;13.30;60.72;101341.47;7346971;19;20009;-60
2022/05/14 03:08:52;;;;;;;0.10;0.10;;;;;;;13.27;61.07;101341.50;7360229;19;20010;-58
2022/05/14 03:11:18;;;;;;;0.00;0.00;;;;;;;13.22;60.92;101342.47;7360298;19;20461;-58
2022/05/14 03:13:44;;;;;;;0.00;0.00;;;;;;;13.20;61.16;101346.88;7363388;19;20035;-59
2022/05/14 03:16:10;;;;;;;0.00;0.00;;;;;;;13.16;61.63;101355.72;7356475;19;20076;-60
2022/05/14 03:18:35;;;;;;;0.00;0.00;;;;;;;13.15;60.81;101354.00;7353620;19;20031;-60
2022/05/14 03:21:01;;;;;;;0.00;0.00;;;;;;;13.05;61.71;101347.22;7360587;19;20015;-60
2022/05/14 03:23:26;;;;;;;0.10;0.10;;;;;;;12.98;61.49;101349.13;7359188;19;20018;-59
2022/05/14 03:25:51;;;;;;;0.10;0.10;;;;;;;13.11;61.12;101375.94;7356400;19;20018;-58
2022/05/14 03:28:17;;;;;;;0.00;0.00;;;;;;;13.09;61.51;101366.38;7364308;19;20035;-59
2022/05/14 03:30:43;;;;;;;0.10;0.10;;;;;;;13.08;62.04;101373.41;7361922;19;20022;-58
2022/05/14 03:33:08;;;;;;;0.08;0.08;;;;;;;13.05;62.17;101368.19;7366563;19;20518;-58
2022/05/14 03:35:34;;;;;;;0.00;0.00;;;;;;;13.06;61.96;101362.06;7361463;19;20110;-60
2022/05/14 03:37:59;;;;;;;0.00;0.00;;;;;;;13.07;61.79;101366.41;7361841;19;20027;-58
2022/05/14 03:40:25;;;;;;;0.00;0.00;;;;;;;12.94;61.74;101347.47;7361319;19;20046;-58
2022/05/14 03:42:50;;;;;;;0.00;0.00;;;;;;;12.99;61.74;101357.84;7358009;19;20127;-60
2022/05/14 03:45:15;;;;;;;0.00;0.00;;;;;;;13.04;61.81;101369.09;7361272;19;20029;-59
2022/05/14 03:47:41;;;;;;;0.00;0.00;;;;;;;13.02;62.08;101373.50;7362008;19;20022;-58
2022/05/14 03:50:06;;;;;;;0.00;0.00;;;;;;;12.94;61.88;101349.22;7359353;19;20034;-58
2022/05/14 03:52:32;;;;;;;0.00;0.00;;;;;;;13.03;62.13;101370.00;7360964;19;20019;-59
2022/05/14 03:54:57;;;;;;;0.03;0.03;;;;;;;13.01;62.38;101366.53;7358150;19;20017;-58
2022/05/14 03:57:22;;;;;;;0.00;0.00;;;;;;;13.01;62.53;101366.53;7362155;19;20074;-59
2022/05/14 03:59:48;;;;;;;0.00;0.00;;;;;;;13.00;61.93;101375.31;7369474;19;20491;-59
2022/05/14 04:02:13;;;;;;;0.00;0.00;;;;;;;13.02;61.21;101376.13;7371604;19;20050;-58
2022/05/14 04:04:38;;;;;;;0.00;0.00;;;;;;;13.01;62.15;101366.53;7369467;19;20027;-60
2022/05/14 04:07:04;;;;;;;0.00;0.00;;;;;;;13.00;62.07;101375.31;7368048;19;20014;-57
2022/05/14 04:09:29;;;;;;;0.00;0.00;;;;;;;12.93;62.14;101365.88;7368251;19;20018;-59
2022/05/14 04:11:55;;;;;;;0.00;0.00;;;;;;;12.97;62.12;101370.97;7359546;19;20033;-59
2022/05/14 04:14:21;;;;;;;0.00;0.00;;;;;;;12.98;62.31;101377.13;7366445;19;20010;-57
2022/05/14 04:16:47;;;;;;;0.05;0.05;;;;;;;12.97;62.66;101376.22;7365450;19;20018;-60
2022/05/14 04:19:12;;;;;;;0.00;0.00;;;;;;;12.97;61.73;101376.22;7365725;19;20030;-60
2022/05/14 04:21:38;;;;;;;0.00;0.00;;;;;;;12.98;62.56;101377.13;7362598;19;20114;-58
2022/05/14 04:24:04;;;;;;;0.00;0.00;;;;;;;12.98;62.64;101383.22;7367092;19;20018;-59
2022/05/14 04:26:30;;;;;;;0.00;0.00;;;;;;;12.99;62.38;101379.69;7367067;19;20740;-59
2022/05/14 04:28:55;;;;;;;0.00;0.00;;;;;;;12.89;61.82;101366.81;7366727;19;20017;-57
2022/05/14 04:31:22;;;;;;;0.00;0.00;;;;;;;13.00;62.55;101385.78;7373046;19;20419;-59
2022/05/14 04:33:47;;;;;;;0.00;0.00;;;;;;;13.00;62.22;101380.56;7373021;19;20006;-59
2022/05/14 04:36:13;;;;;;;0.00;0.00;;;;;;;12.99;62.27;101374.44;7373521;19;20046;-60
2022/05/14 04:38:38;;;;;;;0.00;0.00;;;;;;;12.98;62.36;101382.34;7366908;19;20474;-58
2022/05/14 04:41:04;;;;;;;0.00;0.00;;;;;;;12.90;62.09;101368.53;7370243;19;20014;-58
2022/05/14 04:43:31;;;;;;;0.00;0.00;;;;;;;12.98;62.13;101387.59;7375293;19;20021;-60
2022/05/14 04:45:56;;;;;;;0.00;0.00;;;;;;;12.98;62.27;101388.47;7373407;19;20046;-59
2022/05/14 04:48:22;;;;;;;0.00;0.00;;;;;;;12.95;62.40;101377.16;7375142;19;21513;-59
2022/05/14 04:50:47;;;;;;;0.00;0.00;;;;;;;12.99;62.62;101392.81;7373535;19;20011;-59
2022/05/14 04:53:13;;;;;;;0.00;0.00;;;;;;;12.97;62.60;101388.47;7366780;19;20015;-59
2022/05/14 04:55:38;;;;;;;0.00;0.00;;;;;;;12.89;62.63;101366.81;7367002;19;20040;-59
2022/05/14 04:58:07;;;;;;;0.00;0.00;;;;;;;13.00;62.73;101391.03;7375927;19;20730;-58
2022/05/14 05:00:33;;;;;;;0.00;0.00;;;;;;;13.01;62.73;101392.75;7368189;19;20099;-60
2022/05/14 05:03:16;;;;;;;0.00;0.00;;;;;;;13.03;62.11;101396.22;7365285;19;20078;-57
2022/05/14 05:05:43;;;;;;;0.00;0.00;;;;;;;13.04;62.89;101395.31;7372531;19;20010;-59
2022/05/14 05:08:09;;;;;;;0.00;0.00;;;;;;;13.04;62.43;101397.94;7365858;19;20006;-58
2022/05/14 05:10:36;;;;;;;0.00;0.00;;;;;;;13.06;62.71;101398.75;7366211;19;20027;-60
2022/05/14 05:13:01;;;;;;;0.00;0.00;;;;;;;13.07;62.49;101397.00;7372458;19;20478;-59
2022/05/14 05:15:27;;;;;;;0.00;0.00;;;;;;;13.07;62.30;101392.63;7374513;19;20014;-59
2022/05/14 05:17:52;;;;;;;0.00;0.00;;;;;;;13.08;62.57;101399.63;7371409;19;20030;-59
2022/05/14 05:20:18;;;;;;;0.00;0.00;;;;;;;13.10;63.03;101396.94;7371358;19;20010;-59
2022/05/14 05:22:43;;;;;;;0.00;0.00;;;;;;;13.11;62.83;101403.91;7365486;19;20106;-58
2022/05/14 05:25:09;;;;;;;0.00;0.00;;;;;;;13.13;62.82;101402.13;7366058;19;20007;-60
2022/05/14 05:27:35;;;;;;;0.08;0.08;;;;;;;13.07;62.89;101392.63;7365311;19;20437;-57
2022/05/14 05:30:02;;;;;;;0.00;0.00;;;;;;;13.15;62.67;101401.19;7364342;19;20006;-59
2022/05/14 05:32:27;;;;;;;0.10;0.10;;;;;;;13.22;62.97;101407.19;7364762;19;20026;-59
2022/05/14 05:34:53;;;;;;;0.00;0.00;;;;;;;13.26;62.54;101402.75;7364675;19;20504;-60
2022/05/14 05:37:18;;;;;;;0.00;0.00;;;;;;;13.29;62.69;101403.53;7366713;19;20018;-58
2022/05/14 05:39:43;;;;;;;0.00;0.00;;;;;;;13.34;62.63;101414.78;7364887;19;20485;-58
2022/05/14 05:42:09;;;;;;;0.10;0.10;;;;;;;13.37;62.74;101411.22;7365031;19;20360;-57
2022/05/14 05:44:34;;;;;;;0.00;0.00;;;;;;;13.40;62.25;101411.16;7361518;19;20026;-58
2022/05/14 05:47:06;;;;;;;0.00;0.00;;;;;;;13.47;62.42;101410.97;7371659;19;20014;-59
2022/05/14 05:49:32;;;;;;;0.00;0.00;;;;;;;13.49;62.35;101411.81;7371049;19;20010;-59
2022/05/14 05:51:57;;;;;;;0.10;0.10;;;;;;;13.52;62.42;101408.25;7367141;19;20828;-60
2022/05/14 05:57:14;;;;;;;0.00;0.00;;;;;;;13.60;62.50;101416.81;7267035;19;2004344;-59
2022/05/14 05:59:39;;;;;;;0.00;0.00;;;;;;;13.64;62.33;101420.22;7368452;19;20029;-60
2022/05/14 06:02:06;;;;;;;0.10;0.10;;;;;;;13.60;62.52;101403.69;7362799;19;20006;-59
2022/05/14 06:04:32;;;;;;;0.00;0.00;;;;;;;13.71;62.27;101427.91;7361079;19;20029;-60
2022/05/14 06:06:57;;;;;;;0.00;0.00;;;;;;;13.75;62.13;101429.56;7360451;19;20081;-59
2022/05/14 06:09:26;;;;;;;0.00;0.00;;;;;;;13.67;62.20;101397.38;7368189;19;20090;-58
2022/05/14 06:11:52;;;;;;;0.10;0.10;;;;;;;13.84;62.53;101428.50;7368974;19;20010;-59
2022/05/14 06:14:17;;;;;;;0.05;0.05;;;;;;;13.88;62.41;101429.25;7372812;19;25209;-59
2022/05/14 06:16:43;;;;;;;0.08;0.08;;;;;;;13.92;62.06;101425.66;7363503;19;20051;-59
2022/05/14 06:19:09;;;;;;;0.00;0.00;;;;;;;13.84;62.11;101409.22;7367225;19;25334;-59
2022/05/14 06:21:36;;;;;;;0.00;0.00;;;;;;;13.99;62.25;101432.50;7367536;19;20017;-59
2022/05/14 06:24:03;;;;;;;0.00;0.00;;;;;;;13.93;62.07;101416.88;7362859;19;20007;-61
2022/05/14 06:26:29;;;;;;;0.00;0.00;;;;;;;14.05;62.27;101426.22;7360563;19;20010;-59
2022/05/14 06:28:54;;;;;;;0.10;0.10;;;;;;;13.98;61.93;101409.75;7368488;19;20018;-58
2022/05/14 06:31:20;;;;;;;0.00;0.00;;;;;;;14.11;61.97;101434.81;7362091;19;20017;-58
2022/05/14 06:33:47;;;;;;;0.00;0.00;;;;;;;14.13;61.76;101429.50;7361090;19;20109;-57
2022/05/14 06:36:13;;;;;;;0.00;0.00;;;;;;;14.14;62.13;101440.00;7362410;19;20010;-59
2022/05/14 06:38:39;;;;;;;0.03;0.03;;;;;;;14.12;61.95;101433.91;7360455;19;20908;-58
2022/05/14 06:41:10;;;;;;;0.00;0.00;;;;;;;14.18;61.48;101438.97;7362965;19;20111;-58
2022/05/14 06:43:36;;;;;;;0.00;0.00;;;;;;;14.18;61.68;101446.88;7363310;19;20018;-59
2022/05/14 06:46:02;;;;;;;0.00;0.00;;;;;;;14.19;61.70;101446.00;7361988;19;20052;-58
2022/05/14 06:48:28;;;;;;;0.00;0.00;;;;;;;14.20;61.91;101450.34;7363237;19;20014;-59
2022/05/14 06:50:55;;;;;;;0.00;0.00;;;;;;;14.22;62.15;101461.66;7367509;19;20056;-61
2022/05/14 06:53:22;;;;;;;0.00;0.00;;;;;;;14.25;62.22;101464.22;7360587;19;20010;-60
2022/05/14 06:55:51;;;;;;;0.00;0.00;;;;;;;14.29;62.33;101457.09;7361309;19;20059;-59
2022/05/14 06:58:22;;;;;;;0.00;0.00;;;;;;;14.33;62.13;101457.88;7366542;19;20018;-59
2022/05/14 07:00:48;;;;;;;0.00;0.00;;;;;;;14.35;62.55;101461.34;7367354;19;20082;-59
2022/05/14 07:08:42;;;;;;;0.00;0.00;;;;;;;14.40;62.42;101456.84;7367524;19;20023;-59
2022/05/14 07:11:10;;;;;;;0.00;0.00;;;;;;;14.52;61.63;101469.66;7369325;19;20060;-59
2022/05/14 07:13:37;;;;;;;0.10;0.10;;;;;;;14.56;62.35;101460.81;7365188;19;20006;-58
2022/05/14 07:16:02;;;;;;;0.00;0.00;;;;;;;14.59;61.66;101465.09;7359179;19;20006;-59
2022/05/14 07:18:28;;;;;;;0.00;0.00;;;;;;;14.64;61.54;101469.31;7358797;19;20014;-59
2022/05/14 07:20:54;;;;;;;0.00;0.00;;;;;;;14.69;61.49;101470.06;7365229;19;20014;-59
2022/05/14 07:23:20;;;;;;;0.00;0.00;;;;;;;14.75;60.77;101474.28;7366088;19;20015;-59
2022/05/14 07:25:45;;;;;;;0.00;0.00;;;;;;;14.79;61.26;101470.69;7359966;19;20736;-59
2022/05/14 07:28:10;;;;;;;0.00;0.00;;;;;;;14.84;61.67;101470.56;7357768;19;20792;-59
2022/05/14 07:30:36;;;;;;;0.00;0.00;;;;;;;14.88;61.09;101478.31;7359272;19;20023;-58
2022/05/14 07:33:01;;;;;;;0.10;0.10;;;;;;;14.91;61.84;101475.59;7361865;19;20526;-59
2022/05/14 07:35:27;;;;;;;0.00;0.00;;;;;;;14.95;61.86;101482.50;7364744;19;20028;-60
2022/05/14 07:37:55;;;;;;;0.10;0.10;;;;;;;14.99;61.53;101470.97;7361071;19;20030;-59
2022/05/14 07:40:25;;;;;;;0.00;0.00;;;;;;;15.01;61.42;101473.59;7366467;19;20047;-59
2022/05/14 07:42:55;;;;;;;0.00;0.00;;;;;;;15.11;61.69;101475.03;7365069;19;20014;-58
2022/05/14 07:45:37;;;;;;;0.10;0.10;;;;;;;15.19;61.61;101480.91;7366759;19;20014;-59
2022/05/14 07:48:06;;;;;;;0.00;0.00;;;;;;;15.27;61.32;101480.72;7372354;19;20078;-57
2022/05/14 07:50:32;;;;;;;0.00;0.00;;;;;;;15.34;61.09;101482.25;7363240;19;20011;-60
2022/05/14 07:52:58;;;;;;;0.00;0.00;;;;;;;15.41;61.23;101482.91;7364349;19;20402;-59
2022/05/14 07:55:23;;;;;;;0.00;0.00;;;;;;;15.46;61.60;101481.00;7370361;19;20371;-60
2022/05/14 07:57:49;;;;;;;0.00;0.00;;;;;;;15.50;60.65;101493.16;7361699;19;20003;-58
2022/05/14 08:00:15;;;;;;;0.08;0.08;;;;;;;15.55;60.85;101493.88;7368636;19;20054;-57
2022/05/14 08:02:43;;;;;;;0.10;0.10;;;;;;;15.61;60.95;101491.06;7365281;19;20070;-60
2022/05/14 08:05:10;;;;;;;0.00;0.00;;;;;;;15.64;60.86;101487.50;7362698;19;20006;-61
2022/05/14 08:07:37;;;;;;;0.00;0.00;;;;;;;15.70;60.86;101496.06;7361941;19;20971;-58
2022/05/14 08:10:05;;;;;;;0.00;0.00;;;;;;;15.79;60.36;101490.53;7362068;19;20017;-58
2022/05/14 08:12:38;;;;;;;0.00;0.00;;;;;;;15.87;60.05;101492.94;7359266;19;20010;-58
2022/05/14 08:15:04;;;;;;;0.00;0.00;;;;;;;15.91;60.36;101491.91;7359327;19;20367;-59
2022/05/14 08:17:30;;;;;;;0.00;0.00;;;;;;;16.00;59.84;101493.38;7363260;19;20019;-59
2022/05/14 08:19:56;;;;;;;0.00;0.00;;;;;;;16.08;59.30;101492.22;7368228;19;20018;-59
2022/05/14 08:25:09;;;;;;;0.03;0.03;;;;;;;16.28;58.85;101488.94;7364722;19;20031;-57
2022/05/14 08:27:44;;;;;;;0.10;0.10;;;;;;;16.33;58.96;101492.28;7360793;19;20049;-61
2022/05/14 08:30:11;;;;;;;0.00;0.00;;;;;;;16.51;58.47;101489.91;7364189;19;20549;-59
2022/05/14 08:32:37;;;;;;;0.00;0.00;;;;;;;16.61;57.99;101491.31;7362075;19;20022;-59
2022/05/14 08:35:02;;;;;;;0.00;0.00;;;;;;;16.74;57.87;101495.28;7372406;19;20007;-58
2022/05/14 08:37:27;;;;;;;0.00;0.00;;;;;;;16.85;57.50;101494.88;7370892;19;20420;-59
2022/05/14 08:39:53;;;;;;;0.00;0.00;;;;;;;16.86;56.89;101476.34;7367744;19;20027;-60
2022/05/14 08:42:18;;;;;;;0.10;0.10;;;;;;;17.05;56.42;101494.16;7363742;19;20019;-59
2022/05/14 08:44:46;;;;;;;0.10;0.10;;;;;;;17.14;56.13;101485.06;7367083;19;20023;-60
2022/05/14 08:47:29;;;;;;;0.00;0.00;;;;;;;17.25;56.59;101491.63;7361242;19;20113;-60
2022/05/14 08:49:56;;;;;;;0.10;0.10;;;;;;;17.22;56.78;101477.69;7364967;19;20010;-58
2022/05/14 08:52:24;;;;;;;0.00;0.00;;;;;;;17.43;56.05;101484.78;7365661;19;20078;-58
2022/05/14 08:54:56;;;;;;;0.10;0.10;;;;;;;17.50;55.67;101482.78;7361565;19;20006;-59
2022/05/14 08:57:55;;;;;;;0.10;0.10;;;;;;;17.60;55.21;101482.34;7367991;19;20014;-60
2022/05/14 09:00:22;;;;;;;0.10;0.10;;;;;;;17.51;55.12;101473.94;7263309;19;2004123;-58
2022/05/14 09:02:53;;;;;;;0.05;0.05;;;;;;;17.67;55.17;101490.88;7356821;19;20380;-59
2022/05/14 09:05:31;;;;;;;0.03;0.03;;;;;;;17.72;55.39;101483.63;7368681;19;20014;-60
2022/05/14 09:07:57;;;;;;;0.10;0.10;;;;;;;17.72;54.42;101483.63;7352320;19;20679;-59
2022/05/14 09:10:30;;;;;;;0.10;0.10;;;;;;;17.92;55.01;101484.66;7361579;19;20014;-58
2022/05/14 09:13:08;;;;;;;0.10;0.10;;;;;;;18.15;54.50;101476.66;7364617;19;20031;-59
2022/05/14 09:15:34;;;;;;;0.10;0.10;;;;;;;18.34;53.72;101485.50;7362005;19;20443;-60
2022/05/14 09:18:10;;;;;;;0.10;0.10;;;;;;;18.53;53.49;101479.44;7357587;19;20369;-58
2022/05/14 09:20:46;;;;;;;0.10;0.10;;;;;;;18.62;52.42;101479.88;7361893;19;20094;-60
2022/05/14 09:23:12;;;;;;;0.10;0.10;;;;;;;18.66;52.34;101472.69;7369701;19;20094;-59
2022/05/14 09:25:41;;;;;;;0.00;0.00;;;;;;;18.79;51.32;101473.88;7363773;19;20082;-58
2022/05/14 09:28:27;;;;;;;0.03;0.03;;;;;;;18.98;52.13;101473.91;7369250;19;20010;-59
2022/05/14 09:30:55;;;;;;;0.00;0.00;;;;;;;19.15;51.50;101466.03;7370589;19;20729;-60
2022/05/14 09:33:31;;;;;;;0.10;0.10;;;;;;;19.46;51.41;101469.91;7371509;19;20048;-59
2022/05/14 09:35:59;;;;;;;0.10;0.10;;;;;;;19.69;50.13;101466.19;7367833;19;20782;-59
2022/05/14 09:38:25;;;;;;;0.10;0.10;;;;;;;19.85;50.27;101469.81;7360844;19;20467;-58
2022/05/14 09:40:52;;;;;;;0.00;0.00;;;;;;;20.10;49.88;101471.25;7358373;19;20006;-60
2022/05/14 09:43:17;;;;;;;0.00;0.00;;;;;;;20.34;48.65;101462.06;7352380;19;20021;-59
2022/05/14 09:46:00;;;;;;;0.00;0.00;;;;;;;20.64;50.29;101472.91;7366293;19;20021;-59
2022/05/14 09:48:33;;;;;;;0.10;0.10;;;;;;;20.72;49.42;101464.53;7357557;19;20451;-59
2022/05/14 09:51:03;;;;;;;0.10;0.10;;;;;;;20.83;49.00;101461.28;7351492;19;20014;-59
2022/05/14 09:53:39;;;;;;;0.00;0.00;;;;;;;21.09;48.66;101454.59;7367866;19;20015;-58
2022/05/14 09:56:35;;;;;;;0.10;0.10;;;;;;;21.43;50.23;101440.31;7363480;19;20006;-59
2022/05/14 09:59:22;;;;;;;0.10;0.10;;;;;;;22.02;49.13;101458.16;7262119;19;2004451;-58
2022/05/14 10:02:33;;;;;;;0.10;0.10;;;;;;;22.56;49.35;101464.75;7259166;19;2004449;-59
2022/05/14 10:05:06;;;;;;;0.10;0.10;;;;;;;23.01;46.25;101464.66;7263040;19;2004343;-60
2022/05/14 10:07:44;;;;;;;0.10;0.10;;;;;;;23.30;45.80;101461.91;7361083;19;20002;-60
2022/05/14 10:10:19;;;;;;;0.10;0.10;;;;;;;23.52;45.85;101456.09;7370072;19;20050;-60
2022/05/14 10:13:00;;;;;;;0.10;0.10;;;;;;;23.73;45.47;101453.84;7363213;19;20006;-59
2022/05/14 10:15:45;;;;;;;0.10;0.10;;;;;;;24.14;46.04;101458.22;7363617;19;20048;-58
2022/05/14 10:18:19;;;;;;;0.10;0.10;;;;;;;24.36;43.66;101452.31;7363732;19;20903;-60
2022/05/14 10:21:15;;;;;;;0.10;0.10;;;;;;;24.91;45.11;101454.66;7360953;19;20011;-58
2022/05/14 10:40:17;;;;;;;0.10;0.10;;;;;;;25.29;43.21;101456.41;7333384;19;20510;-57
2022/05/14 10:42:59;;;;;;;0.10;0.10;;;;;;;25.18;41.70;101451.00;7386843;19;20888;-59
2022/05/14 10:45:41;;;;;;;0.10;0.10;;;;;;;25.12;41.82;101454.13;7392247;19;20789;-59
2022/05/14 10:48:17;;;;;;;0.10;0.10;;;;;;;25.04;40.70;101460.84;7398873;19;20115;-57
2022/05/14 10:50:43;;;;;;;0.10;0.10;;;;;;;24.85;39.47;101466.63;7401580;19;20010;-57
2022/05/14 10:53:10;;;;;;;0.10;0.10;;;;;;;24.68;39.87;101453.59;7396954;19;21129;-59
2022/05/14 10:55:55;;;;;;;0.00;0.00;;;;;;;24.54;42.01;101462.59;7396266;19;20021;-58
2022/05/14 10:58:57;;;;;;;0.10;0.10;;;;;;;24.35;42.59;101456.75;7389483;19;20467;-58
2022/05/14 11:01:42;;;;;;;0.10;0.10;;;;;;;24.19;42.11;101450.78;7286438;19;2004055;-59
2022/05/14 11:04:19;;;;;;;0.10;0.10;;;;;;;24.21;41.33;101456.84;7392949;19;20014;-58
2022/05/14 11:06:50;;;;;;;0.10;0.10;;;;;;;24.13;40.98;101456.50;7393903;19;20478;-58
2022/05/14 11:09:22;;;;;;;0.10;0.10;;;;;;;23.98;41.86;101427.25;7400336;19;20006;-58
2022/05/14 11:11:53;;;;;;;0.10;0.10;;;;;;;24.03;41.10;101454.47;7403976;19;20023;-57
2022/05/14 11:14:19;;;;;;;0.10;0.10;;;;;;;24.01;40.53;101455.53;7398369;19;20758;-57
2022/05/14 11:16:44;;;;;;;0.10;0.10;;;;;;;24.09;42.02;101450.53;7390709;19;21421;-59
2022/05/14 11:19:31;;;;;;;0.10;0.10;;;;;;;24.34;41.53;101457.72;7391353;19;20010;-59
2022/05/14 11:21:57;;;;;;;0.03;0.03;;;;;;;24.82;39.66;101449.97;7394000;19;20027;-58
2022/05/14 11:24:34;;;;;;;0.10;0.10;;;;;;;25.34;41.17;101448.91;7398144;19;20035;-58
2022/05/14 11:26:59;;;;;;;0.10;0.10;;;;;;;25.67;38.50;101452.75;7399453;19;20014;-58
2022/05/14 11:29:29;;;;;;;0.10;0.10;;;;;;;25.95;38.13;101436.34;7399919;19;20018;-59
2022/05/14 11:32:01;;;;;;;0.10;0.10;;;;;;;26.39;38.18;101458.88;7400226;19;20018;-58
2022/05/14 11:34:26;;;;;;;0.10;0.10;;;;;;;26.86;37.15;101457.00;7397975;19;20343;-58
2022/05/14 11:36:56;;;;;;;0.00;0.00;;;;;;;27.35;36.57;101450.41;7393287;19;20043;-59
2022/05/14 11:39:22;;;;;;;0.10;0.10;;;;;;;27.76;35.83;101448.84;7391946;19;20733;-58
2022/05/14 11:41:49;;;;;;;0.00;0.00;;;;;;;28.17;34.94;101459.63;7398128;19;21094;-59
2022/05/14 11:44:33;;;;;;;0.10;0.10;;;;;;;28.49;37.52;101448.03;7389295;19;20010;-58
2022/05/14 11:47:00;;;;;;;0.10;0.10;;;;;;;28.41;33.95;101423.63;7390800;19;20018;-57
2022/05/14 11:49:40;;;;;;;0.10;0.10;;;;;;;28.74;36.18;101438.66;7375259;19;20137;-57
2022/05/14 11:52:24;;;;;;;0.10;0.10;;;;;;;29.04;35.30;101437.78;7359239;19;20018;-58
2022/05/14 11:55:03;;;;;;;0.10;0.10;;;;;;;29.40;36.40;101439.03;7356485;19;20107;-58
2022/05/14 11:57:34;;;;;;;0.00;0.00;;;;;;;29.66;32.69;101433.16;7363285;19;20679;-57
2022/05/14 12:00:09;;;;;;;0.00;0.00;;;;;;;29.87;34.04;101433.84;7360331;19;20018;-58
2022/05/14 12:03:12;;;;;;;0.00;0.00;;;;;;;30.04;34.59;101443.03;7361092;19;20738;-57
2022/05/14 12:05:40;;;;;;;0.03;0.03;;;;;;;30.05;31.76;101427.72;7259834;19;2004301;-58
2022/05/14 12:08:23;;;;;;;0.10;0.10;;;;;;;30.37;33.45;101428.28;7360879;19;20038;-57